Time;durP1;ratioP1;P1;durP2;ratioP2;P2;SDS_P1;SDS_P2;PMS_P1;PMS_P2;Temp;Humidity;BMP_temperature;BMP_pressure;BME280_temperature;BME280_humidity;BME280_pressure;Samples;Min_cycle;Max_cycle;Signal;HPM_P1;HPM_P2
2022/04/24 00:00:38;;;;;;;30.73;19.30;;;9.20;99.90;;;;;;5024868;28;20046;-64
2022/04/24 00:03:04;;;;;;;29.83;20.08;;;9.10;99.90;;;;;;5029224;28;20041;-64
2022/04/24 00:05:30;;;;;;;27.50;18.75;;;9.10;99.90;;;;;;5027059;28;20052;-64
2022/04/24 00:07:56;;;;;;;29.30;20.15;;;9.10;99.90;;;;;;5025579;28;20139;-64
2022/04/24 00:10:21;;;;;;;26.50;19.73;;;9.00;99.90;;;;;;5026165;28;20060;-64
2022/04/24 00:12:48;;;;;;;26.00;19.55;;;9.00;99.90;;;;;;5025510;28;20049;-64
2022/04/24 00:15:14;;;;;;;36.20;21.77;;;8.90;99.90;;;;;;5027046;28;20494;-64
2022/04/24 00:17:40;;;;;;;28.95;19.33;;;8.80;99.90;;;;;;5025897;28;20049;-65
2022/04/24 00:20:06;;;;;;;25.52;19.50;;;8.80;99.90;;;;;;5025387;28;20049;-65
2022/04/24 00:22:32;;;;;;;25.45;19.38;;;8.80;99.90;;;;;;5024720;28;20041;-64
2022/04/24 00:24:57;;;;;;;32.40;20.55;;;8.80;99.90;;;;;;5032331;28;20040;-64
2022/04/24 00:27:23;;;;;;;28.67;20.23;;;8.80;99.90;;;;;;5025927;28;20092;-65
2022/04/24 00:29:48;;;;;;;31.30;19.63;;;8.80;99.90;;;;;;5023436;28;20045;-65
2022/04/24 00:32:14;;;;;;;27.77;19.70;;;8.70;99.90;;;;;;5023146;28;20049;-65
2022/04/24 00:34:41;;;;;;;26.23;17.73;;;8.60;99.90;;;;;;5023043;28;20037;-64
2022/04/24 00:37:07;;;;;;;29.52;19.92;;;8.70;99.90;;;;;;5023158;28;20052;-65
2022/04/24 00:39:35;;;;;;;32.17;19.27;;;8.60;99.90;;;;;;5025543;28;20041;-64
2022/04/24 00:42:00;;;;;;;27.50;20.17;;;8.60;99.90;;;;;;5023156;28;20040;-65
2022/04/24 00:44:27;;;;;;;29.45;19.60;;;8.50;99.90;;;;;;5026559;28;20445;-64
2022/04/24 00:46:56;;;;;;;27.00;19.73;;;8.50;99.90;;;;;;5024149;28;20042;-64
2022/04/24 00:49:21;;;;;;;;;;;8.50;99.90;;;;;;5029850;28;20100;-64
2022/04/24 00:51:47;;;;;;;23.58;18.17;;;8.50;99.90;;;;;;5026035;28;19925;-65
2022/04/24 00:54:13;;;;;;;23.95;18.35;;;8.50;99.90;;;;;;5025716;28;20048;-65
2022/04/24 00:56:40;;;;;;;31.17;18.92;;;8.50;99.90;;;;;;5025747;28;20034;-65
2022/04/24 00:59:08;;;;;;;31.25;20.55;;;8.50;99.90;;;;;;5023979;28;20099;-64
2022/04/24 01:01:35;;;;;;;24.30;18.38;;;8.40;99.90;;;;;;5025358;28;20120;-64
2022/04/24 01:04:03;;;;;;;25.88;17.92;;;8.50;99.90;;;;;;5026059;28;20046;-65
2022/04/24 01:06:31;;;;;;;29.35;19.85;;;8.50;99.90;;;;;;5028561;28;20380;-65
2022/04/24 01:09:10;;;;;;;28.17;20.00;;;8.40;99.90;;;;;;5029333;28;21670;-64
2022/04/24 01:11:36;;;;;;;25.38;20.02;;;8.50;99.90;;;;;;5029685;28;20067;-65
2022/04/24 01:14:01;;;;;;;24.80;18.95;;;8.40;99.90;;;;;;5030226;28;20116;-65
2022/04/24 01:16:27;;;;;;;26.90;19.58;;;8.40;99.90;;;;;;5029059;28;20560;-65
2022/04/24 01:18:53;;;;;;;26.75;19.70;;;8.40;99.90;;;;;;5029541;28;20049;-65
2022/04/24 01:21:19;;;;;;;29.83;20.17;;;8.30;99.90;;;;;;5030114;28;20048;-65
2022/04/24 01:23:45;;;;;;;32.95;20.15;;;8.30;99.90;;;;;;5030062;28;20132;-65
2022/04/24 01:26:11;;;;;;;29.00;19.33;;;8.30;99.90;;;;;;5028685;28;20092;-65
2022/04/24 01:28:38;;;;;;;27.73;19.88;;;8.20;99.90;;;;;;5028919;28;20053;-65
2022/04/24 01:31:05;;;;;;;35.97;19.83;;;8.20;99.90;;;;;;5029255;28;20051;-64
2022/04/24 01:33:31;;;;;;;35.55;22.73;;;8.20;99.90;;;;;;5030285;28;20088;-65
2022/04/24 01:35:57;;;;;;;27.38;20.42;;;8.10;99.90;;;;;;5024891;28;20041;-64
2022/04/24 01:38:23;;;;;;;31.80;22.00;;;8.10;99.90;;;;;;5029343;28;20049;-65
2022/04/24 01:40:48;;;;;;;33.63;21.23;;;8.00;99.90;;;;;;5028807;28;20042;-65
2022/04/24 01:43:16;;;;;;;40.42;22.48;;;8.00;99.90;;;;;;5038094;28;20491;-65
2022/04/24 01:45:42;;;;;;;25.95;20.38;;;7.90;99.90;;;;;;5030591;28;20124;-65
2022/04/24 01:48:08;;;;;;;29.50;19.90;;;7.90;99.90;;;;;;5028682;28;20049;-65
2022/04/24 01:50:34;;;;;;;26.83;20.75;;;7.90;99.90;;;;;;5028864;28;20064;-65
2022/04/24 01:53:00;;;;;;;29.33;19.98;;;7.90;99.90;;;;;;5035612;28;20413;-65
2022/04/24 01:55:25;;;;;;;30.05;19.90;;;7.90;99.90;;;;;;5028872;28;20521;-65
2022/04/24 01:57:51;;;;;;;29.55;20.45;;;7.80;99.90;;;;;;5029527;28;20131;-65
2022/04/24 02:00:18;;;;;;;33.00;21.50;;;7.80;99.90;;;;;;5028102;28;20049;-65
2022/04/24 02:02:43;;;;;;;28.88;21.27;;;7.80;99.90;;;;;;5029205;28;20042;-64
2022/04/24 02:05:09;;;;;;;41.63;21.75;;;7.70;99.90;;;;;;5028535;28;20056;-65
2022/04/24 02:07:35;;;;;;;28.45;20.90;;;7.70;99.90;;;;;;5029056;28;20056;-65
2022/04/24 02:10:00;;;;;;;26.90;21.58;;;7.70;99.90;;;;;;5027905;28;20084;-65
2022/04/24 02:12:26;;;;;;;29.48;20.98;;;7.60;99.90;;;;;;5028252;28;20457;-65
2022/04/24 02:14:52;;;;;;;30.58;22.00;;;7.60;99.90;;;;;;5028842;28;20041;-65
2022/04/24 02:17:17;;;;;;;31.02;22.48;;;7.60;99.90;;;;;;5027854;28;20040;-65
2022/04/24 02:19:43;;;;;;;29.40;20.85;;;7.60;99.90;;;;;;5027753;28;20076;-65
2022/04/24 02:22:09;;;;;;;28.17;20.42;;;7.50;99.90;;;;;;5028429;28;20168;-65
2022/04/24 02:24:34;;;;;;;30.40;21.20;;;7.50;99.90;;;;;;5028861;28;20140;-65
2022/04/24 02:27:00;;;;;;;27.67;21.42;;;7.50;99.90;;;;;;5027913;28;20048;-65
2022/04/24 02:29:27;;;;;;;34.85;23.02;;;7.40;99.90;;;;;;5026693;28;20150;-65
2022/04/24 02:31:53;;;;;;;30.92;21.13;;;7.40;99.90;;;;;;5026126;28;20106;-65
2022/04/24 02:34:18;;;;;;;31.58;21.63;;;7.40;99.90;;;;;;5026522;28;20033;-65
2022/04/24 02:36:44;;;;;;;26.85;20.70;;;7.40;99.90;;;;;;5027668;28;20124;-65
2022/04/24 02:39:10;;;;;;;28.33;22.02;;;7.30;99.90;;;;;;5028122;28;20050;-65
2022/04/24 02:41:35;;;;;;;31.23;19.77;;;7.30;99.90;;;;;;5028975;28;20057;-65
2022/04/24 02:44:01;;;;;;;29.48;21.77;;;7.30;99.90;;;;;;5028037;28;20046;-65
2022/04/24 02:46:28;;;;;;;30.58;21.10;;;7.30;99.90;;;;;;5028027;28;20049;-65
2022/04/24 02:48:53;;;;;;;28.88;21.20;;;7.30;99.90;;;;;;5027988;28;20045;-65
2022/04/24 02:51:19;;;;;;;26.98;19.90;;;7.20;99.90;;;;;;5026414;28;20037;-65
2022/04/24 02:53:45;;;;;;;29.42;20.88;;;7.10;99.90;;;;;;5029083;28;20410;-65
2022/04/24 02:56:10;;;;;;;36.15;21.33;;;7.10;99.90;;;;;;5028965;28;20038;-64
2022/04/24 02:58:38;;;;;;;26.38;20.63;;;7.10;99.90;;;;;;5027374;28;20575;-64
2022/04/24 03:01:04;;;;;;;35.38;21.25;;;7.10;99.90;;;;;;5026158;28;20148;-65
2022/04/24 03:03:30;;;;;;;28.90;20.95;;;7.10;99.90;;;;;;5027183;28;20037;-64
2022/04/24 03:05:56;;;;;;;27.13;21.83;;;7.10;99.90;;;;;;5025465;28;20099;-64
2022/04/24 03:08:23;;;;;;;29.30;20.67;;;7.10;99.90;;;;;;5026496;28;20045;-64
2022/04/24 03:10:49;;;;;;;30.17;20.63;;;7.10;99.90;;;;;;5027413;28;20042;-65
2022/04/24 03:13:15;;;;;;;30.83;20.95;;;7.10;99.90;;;;;;5026983;28;20299;-65
2022/04/24 03:15:40;;;;;;;27.60;21.77;;;7.00;99.90;;;;;;5027954;28;20042;-65
2022/04/24 03:18:06;;;;;;;33.50;22.95;;;7.00;99.90;;;;;;5029848;28;20076;-64
2022/04/24 03:20:33;;;;;;;28.95;21.25;;;7.00;99.90;;;;;;5018328;28;20045;-64
2022/04/24 03:22:59;;;;;;;29.15;20.23;;;6.90;99.90;;;;;;5026956;28;20482;-65
2022/04/24 03:25:24;;;;;;;29.67;20.92;;;6.90;99.90;;;;;;5028207;28;20037;-64
2022/04/24 03:27:50;;;;;;;31.75;23.88;;;6.90;99.90;;;;;;5024618;28;20034;-64
2022/04/24 03:30:16;;;;;;;30.92;22.35;;;6.80;99.90;;;;;;5024848;28;20049;-64
2022/04/24 03:32:42;;;;;;;30.63;21.13;;;6.80;99.90;;;;;;5027973;28;20045;-64
2022/04/24 03:35:09;;;;;;;34.58;22.30;;;6.80;99.90;;;;;;5028845;28;20136;-64
2022/04/24 03:37:38;;;;;;;31.40;22.02;;;6.80;99.90;;;;;;5027144;28;20049;-64
2022/04/24 03:40:04;;;;;;;36.78;25.35;;;6.80;99.90;;;;;;5027673;28;20038;-65
2022/04/24 03:42:30;;;;;;;32.17;21.38;;;6.80;99.90;;;;;;5026990;28;20045;-65
2022/04/24 03:44:57;;;;;;;33.15;21.58;;;6.70;99.90;;;;;;5025285;28;20124;-64
2022/04/24 03:47:24;;;;;;;31.08;22.08;;;6.70;99.90;;;;;;5026299;28;20033;-65
2022/04/24 03:49:50;;;;;;;34.97;23.02;;;6.70;99.90;;;;;;5026683;28;20083;-64
2022/04/24 03:52:16;;;;;;;34.38;21.73;;;6.70;99.90;;;;;;5027566;28;20033;-65
2022/04/24 03:54:42;;;;;;;30.55;21.40;;;6.60;99.90;;;;;;5027876;28;20044;-64
2022/04/24 03:57:07;;;;;;;30.45;22.17;;;6.60;99.90;;;;;;5025857;28;20091;-65
2022/04/24 03:59:33;;;;;;;32.65;21.63;;;6.60;99.90;;;;;;5024354;28;20160;-65
2022/04/24 04:01:59;;;;;;;34.05;23.25;;;6.60;99.90;;;;;;5026264;28;20042;-65
2022/04/24 04:04:25;;;;;;;39.15;21.95;;;6.60;99.90;;;;;;5027584;28;20052;-65
2022/04/24 04:06:52;;;;;;;31.27;19.98;;;6.60;99.90;;;;;;5024574;28;20080;-64
2022/04/24 04:09:18;;;;;;;31.42;22.38;;;6.60;99.90;;;;;;5026429;28;20486;-65
2022/04/24 04:11:43;;;;;;;37.70;22.25;;;6.60;99.90;;;;;;5027339;28;20052;-65
2022/04/24 04:14:09;;;;;;;32.50;21.48;;;6.60;99.90;;;;;;5026248;28;20077;-65
2022/04/24 04:16:35;;;;;;;32.08;20.30;;;6.60;99.90;;;;;;5027545;28;20048;-64
2022/04/24 04:19:00;;;;;;;29.88;23.17;;;6.60;99.90;;;;;;5026519;28;20042;-65
2022/04/24 04:21:26;;;;;;;30.25;21.17;;;6.60;99.90;;;;;;5025998;28;20045;-65
2022/04/24 04:23:52;;;;;;;30.13;21.85;;;6.60;99.90;;;;;;5025830;28;20060;-65
2022/04/24 04:26:18;;;;;;;30.15;19.45;;;6.60;99.90;;;;;;5025612;28;20041;-65
2022/04/24 04:28:47;;;;;;;32.22;21.85;;;6.60;99.90;;;;;;5023669;28;20133;-65
2022/04/24 04:31:14;;;;;;;30.17;21.77;;;6.60;99.90;;;;;;5025451;28;20052;-64
2022/04/24 04:33:41;;;;;;;32.13;22.17;;;6.70;99.90;;;;;;5025945;28;20049;-65
2022/04/24 04:36:08;;;;;;;31.80;21.80;;;6.70;99.90;;;;;;5024714;28;20560;-65
2022/04/24 04:38:33;;;;;;;34.28;19.65;;;6.70;99.90;;;;;;5023207;28;20053;-64
2022/04/24 04:40:59;;;;;;;32.80;20.63;;;6.70;99.90;;;;;;5022337;28;20033;-64
2022/04/24 04:43:29;;;;;;;30.05;21.70;;;6.70;99.90;;;;;;5020400;28;20128;-65
2022/04/24 04:45:54;;;;;;;34.70;19.13;;;6.70;99.90;;;;;;5021413;28;20668;-64
2022/04/24 04:48:20;;;;;;;33.85;20.20;;;6.80;99.90;;;;;;5025248;28;20098;-64
2022/04/24 04:50:46;;;;;;;22.38;17.67;;;6.80;99.90;;;;;;5022988;28;20041;-64
2022/04/24 04:53:11;;;;;;;27.60;18.98;;;6.80;99.90;;;;;;5024771;28;20068;-65
2022/04/24 04:55:37;;;;;;;30.10;20.10;;;6.90;99.90;;;;;;5023653;28;20406;-65
2022/04/24 04:58:03;;;;;;;32.88;19.98;;;6.90;99.90;;;;;;5021886;28;20041;-65
2022/04/24 05:00:29;;;;;;;30.27;18.83;;;6.90;99.90;;;;;;5028483;28;20049;-65
2022/04/24 05:02:55;;;;;;;28.85;19.90;;;6.90;99.90;;;;;;5024688;28;20045;-64
2022/04/24 05:05:21;;;;;;;27.63;20.50;;;6.90;99.90;;;;;;5024607;28;20148;-65
2022/04/24 05:07:47;;;;;;;29.67;20.20;;;6.90;99.90;;;;;;5006373;28;20053;-65
2022/04/24 05:10:13;;;;;;;29.35;19.23;;;7.10;99.90;;;;;;5017119;28;20050;-64
2022/04/24 05:12:39;;;;;;;27.65;19.30;;;7.20;99.90;;;;;;5025587;28;20045;-64
2022/04/24 05:15:09;;;;;;;26.55;19.50;;;7.10;99.90;;;;;;5021225;28;20052;-64
2022/04/24 05:17:36;;;;;;;29.13;20.52;;;7.20;99.90;;;;;;5022824;28;20082;-65
2022/04/24 05:20:07;;;;;;;28.17;19.70;;;7.20;99.90;;;;;;5024909;28;20076;-65
2022/04/24 05:22:33;;;;;;;25.48;18.27;;;7.20;99.90;;;;;;5023477;28;20045;-64
2022/04/24 05:24:59;;;;;;;33.55;19.05;;;7.10;99.90;;;;;;5026272;28;20621;-64
2022/04/24 05:27:26;;;;;;;27.70;18.48;;;7.10;99.90;;;;;;5025139;28;20048;-64
2022/04/24 05:29:52;;;;;;;29.55;20.70;;;7.10;99.90;;;;;;5023708;28;20387;-65
2022/04/24 05:32:18;;;;;;;29.08;19.25;;;7.20;99.90;;;;;;5022740;28;20045;-65
2022/04/24 05:34:44;;;;;;;28.67;19.52;;;7.20;99.90;;;;;;5024725;28;20033;-64
2022/04/24 05:37:11;;;;;;;25.80;18.40;;;7.20;99.90;;;;;;5020955;28;20132;-64
2022/04/24 05:39:37;;;;;;;28.48;19.77;;;7.20;99.90;;;;;;5020648;28;20042;-65
2022/04/24 05:42:03;;;;;;;25.17;19.80;;;7.30;99.90;;;;;;5025344;28;20076;-64
2022/04/24 05:44:29;;;;;;;27.73;20.13;;;7.30;99.90;;;;;;5021332;28;20129;-64
2022/04/24 05:46:54;;;;;;;40.13;21.17;;;7.30;99.90;;;;;;5024119;28;20129;-65
2022/04/24 05:49:20;;;;;;;32.78;20.67;;;7.40;99.90;;;;;;5022182;28;20041;-64
2022/04/24 05:51:46;;;;;;;35.10;22.40;;;7.40;99.90;;;;;;5026680;28;20041;-64
2022/04/24 05:54:12;;;;;;;29.83;21.45;;;7.50;99.90;;;;;;5028597;28;20520;-65
2022/04/24 05:56:41;;;;;;;33.20;22.27;;;7.50;99.90;;;;;;5027387;28;20053;-64
2022/04/24 05:59:08;;;;;;;38.28;21.30;;;7.60;99.90;;;;;;5027296;28;20099;-64
2022/04/24 06:01:34;;;;;;;27.98;19.17;;;7.70;99.90;;;;;;5023577;28;20128;-64
2022/04/24 06:04:00;;;;;;;33.40;20.63;;;7.70;99.90;;;;;;5027709;28;20036;-64
2022/04/24 06:06:26;;;;;;;28.02;21.08;;;7.80;99.90;;;;;;5027160;28;20042;-64
2022/04/24 06:08:52;;;;;;;38.03;22.85;;;7.90;99.90;;;;;;5024830;28;20045;-64
2022/04/24 06:11:19;;;;;;;29.98;20.95;;;7.90;99.90;;;;;;5026291;28;20468;-64
2022/04/24 06:13:45;;;;;;;30.48;21.95;;;8.00;99.90;;;;;;5028295;28;20060;-64
2022/04/24 06:16:11;;;;;;;30.60;20.88;;;8.00;99.90;;;;;;5024660;28;20195;-64
2022/04/24 06:18:38;;;;;;;32.00;20.70;;;8.20;99.90;;;;;;5025299;28;20417;-64
2022/04/24 06:21:03;;;;;;;27.38;21.52;;;8.20;99.90;;;;;;5031569;28;20928;-65
2022/04/24 06:23:31;;;;;;;29.50;19.90;;;8.30;99.90;;;;;;5027937;28;20106;-64
2022/04/24 06:25:58;;;;;;;31.42;20.38;;;8.40;99.90;;;;;;5027046;28;20049;-65
2022/04/24 06:28:24;;;;;;;29.63;21.50;;;8.40;99.90;;;;;;5025766;28;20771;-64
2022/04/24 06:30:50;;;;;;;28.08;19.52;;;8.50;99.90;;;;;;5027148;28;20126;-64
2022/04/24 06:33:15;;;;;;;33.50;20.55;;;8.60;99.90;;;;;;5025159;28;20034;-65
2022/04/24 06:35:41;;;;;;;32.70;20.92;;;8.70;99.90;;;;;;5028438;28;20486;-64
2022/04/24 06:38:09;;;;;;;28.10;18.75;;;8.70;99.90;;;;;;5027167;28;20046;-64
2022/04/24 06:40:34;;;;;;;29.52;19.52;;;8.80;99.90;;;;;;5020388;28;20050;-64
2022/04/24 06:43:02;;;;;;;28.95;18.42;;;8.80;99.90;;;;;;5028456;28;20057;-65
2022/04/24 06:45:42;;;;;;;26.17;18.77;;;8.80;99.90;;;;;;5027359;28;20069;-64
2022/04/24 06:48:13;;;;;;;27.98;17.95;;;8.90;99.90;;;;;;5027832;28;20387;-64
2022/04/24 06:50:41;;;;;;;25.27;17.60;;;8.90;99.90;;;;;;5021764;28;20099;-65
2022/04/24 06:53:09;;;;;;;25.15;16.27;;;9.00;99.90;;;;;;5027890;28;20077;-64
2022/04/24 06:55:41;;;;;;;24.25;15.90;;;9.20;99.90;;;;;;5027210;28;20041;-64
2022/04/24 06:58:08;;;;;;;24.58;15.75;;;9.20;99.90;;;;;;5027625;28;20678;-64
2022/04/24 07:00:37;;;;;;;27.38;15.60;;;9.30;99.90;;;;;;5024953;28;20042;-64
2022/04/24 07:03:10;;;;;;;21.90;16.23;;;9.40;99.90;;;;;;5019876;28;20041;-64
2022/04/24 07:05:36;;;;;;;22.35;16.00;;;9.60;99.90;;;;;;5022518;28;20057;-64
2022/04/24 07:08:01;;;;;;;20.27;14.82;;;9.70;99.90;;;;;;5038164;28;20124;-64
2022/04/24 07:10:27;;;;;;;21.35;14.95;;;9.70;99.90;;;;;;5026802;28;20056;-64
2022/04/24 07:12:54;;;;;;;19.38;15.27;;;9.80;99.90;;;;;;5028036;28;20048;-64
2022/04/24 07:15:23;;;;;;;19.90;13.32;;;10.00;99.90;;;;;;5028324;28;20041;-64
2022/04/24 07:17:49;;;;;;;23.52;13.40;;;10.10;99.90;;;;;;5029265;28;20045;-65
2022/04/24 07:20:18;;;;;;;20.52;12.85;;;10.30;99.90;;;;;;5029313;28;20042;-65
2022/04/24 07:22:49;;;;;;;15.00;11.07;;;10.50;99.90;;;;;;5027998;28;20117;-64
2022/04/24 07:25:17;;;;;;;20.27;11.75;;;10.60;99.90;;;;;;5029854;28;20482;-65
2022/04/24 07:27:43;;;;;;;;;;;10.50;99.90;;;;;;5024315;28;20062;-65
2022/04/24 07:30:15;;;;;;;15.70;10.07;;;10.60;99.90;;;;;;5026600;28;19928;-66
2022/04/24 07:32:42;;;;;;;13.13;9.20;;;10.80;99.90;;;;;;5023157;28;20498;-66
2022/04/24 07:35:13;;;;;;;22.92;11.57;;;11.00;99.90;;;;;;5036281;28;20545;-65
2022/04/24 07:37:40;;;;;;;15.13;10.27;;;11.10;99.90;;;;;;5028102;28;20033;-66
2022/04/24 07:40:08;;;;;;;14.97;9.87;;;11.30;99.90;;;;;;5027911;28;20045;-66
2022/04/24 07:42:51;;;;;;;14.77;9.48;;;11.30;99.90;;;;;;5025165;28;20124;-66
2022/04/24 07:45:22;;;;;;;13.07;10.35;;;11.40;99.90;;;;;;5031316;28;20065;-66
2022/04/24 07:47:52;;;;;;;21.52;10.35;;;11.80;99.90;;;;;;5026597;28;20049;-66
2022/04/24 07:50:20;;;;;;;14.80;9.10;;;11.90;99.90;;;;;;5028045;28;20414;-66
2022/04/24 07:52:47;;;;;;;12.95;8.93;;;12.10;99.90;;;;;;5024608;28;20049;-65
2022/04/24 07:55:17;;;;;;;10.47;9.37;;;12.40;99.90;;;;;;5027948;28;20685;-65
2022/04/24 07:57:43;;;;;;;13.68;8.85;;;12.40;99.90;;;;;;5025719;28;20103;-65
2022/04/24 08:00:09;;;;;;;8.32;7.45;;;12.80;99.90;;;;;;5021010;28;20056;-66
2022/04/24 08:03:05;;;;;;;13.63;7.63;;;13.00;99.90;;;;;;5026303;28;20081;-66
2022/04/24 08:05:36;;;;;;;13.38;7.97;;;13.00;93.00;;;;;;5010198;28;20053;-66
2022/04/24 08:08:06;;;;;;;11.93;7.32;;;13.00;95.10;;;;;;5027862;28;20061;-66
2022/04/24 08:10:34;;;;;;;9.77;6.65;;;13.10;91.10;;;;;;5022744;28;20052;-65
2022/04/24 08:13:00;;;;;;;12.02;7.63;;;13.10;89.20;;;;;;5026846;28;20087;-65
2022/04/24 08:15:26;;;;;;;9.60;7.07;;;13.40;87.20;;;;;;5025347;28;20037;-65
2022/04/24 08:17:52;;;;;;;7.15;5.35;;;13.50;84.80;;;;;;5025070;28;20053;-65
2022/04/24 08:20:18;;;;;;;8.98;6.47;;;13.50;80.70;;;;;;5022010;28;20039;-66
2022/04/24 08:22:47;;;;;;;11.10;6.65;;;13.70;79.50;;;;;;5026952;28;20121;-66
2022/04/24 08:25:15;;;;;;;9.75;5.95;;;13.80;79.80;;;;;;5026428;28;20075;-66
2022/04/24 08:27:41;;;;;;;14.45;7.20;;;13.90;76.30;;;;;;5026597;28;20116;-66
2022/04/24 08:30:09;;;;;;;14.32;5.82;;;14.20;78.60;;;;;;5024963;28;20513;-67
2022/04/24 08:32:36;;;;;;;7.85;6.55;;;14.20;72.50;;;;;;5024063;28;20049;-65
2022/04/24 08:35:03;;;;;;;13.63;6.15;;;14.10;73.80;;;;;;5026422;28;20049;-65
2022/04/24 08:37:30;;;;;;;7.45;6.15;;;14.00;73.00;;;;;;5027950;28;20049;-64
2022/04/24 08:39:56;;;;;;;9.60;6.68;;;14.10;73.80;;;;;;5025713;28;20803;-63
2022/04/24 08:42:21;;;;;;;10.20;6.68;;;14.40;71.90;;;;;;5025509;28;20044;-64
2022/04/24 08:44:49;;;;;;;7.90;6.30;;;14.40;71.40;;;;;;5026765;28;20041;-66
2022/04/24 08:47:16;;;;;;;8.40;6.55;;;14.30;69.70;;;;;;5023662;28;20064;-65
2022/04/24 08:49:44;;;;;;;7.10;6.10;;;14.50;70.80;;;;;;5027549;28;20049;-64
2022/04/24 08:52:11;;;;;;;10.15;6.15;;;14.40;69.40;;;;;;5025861;28;20502;-65
2022/04/24 08:54:39;;;;;;;10.35;6.95;;;14.70;70.30;;;;;;5033866;28;20048;-65
2022/04/24 08:57:04;;;;;;;7.68;6.07;;;14.70;70.00;;;;;;5029845;28;20088;-64
2022/04/24 08:59:30;;;;;;;9.35;6.50;;;14.90;69.20;;;;;;5026940;28;20465;-65
2022/04/24 09:01:58;;;;;;;13.15;7.30;;;14.80;67.50;;;;;;5013614;28;20041;-65
2022/04/24 09:04:30;;;;;;;14.27;7.13;;;14.80;67.10;;;;;;5026269;28;20128;-64
2022/04/24 09:07:00;;;;;;;9.35;7.30;;;14.80;66.40;;;;;;5026210;28;20158;-66
2022/04/24 09:09:28;;;;;;;12.70;7.53;;;14.80;66.70;;;;;;5026813;28;20060;-64
2022/04/24 09:12:26;;;;;;;8.30;7.25;;;14.80;66.40;;;;;;5026220;28;20136;-64
2022/04/24 09:14:52;;;;;;;;;;;14.80;67.00;;;;;;5026313;28;20494;-64
2022/04/24 09:17:23;;;;;;;11.65;7.00;;;14.80;65.60;;;;;;5036642;28;19921;-64
2022/04/24 09:19:50;;;;;;;13.15;6.45;;;15.10;64.30;;;;;;5029140;28;20183;-65
2022/04/24 09:22:16;;;;;;;12.63;6.50;;;15.20;64.10;;;;;;5023638;28;20033;-64
2022/04/24 09:24:49;;;;;;;9.48;7.25;;;15.10;63.70;;;;;;5023988;28;20055;-65
2022/04/24 09:27:52;;;;;;;16.20;7.07;;;15.20;64.00;;;;;;5030826;28;20061;-64
2022/04/24 09:30:17;;;;;;;12.00;7.70;;;15.50;64.70;;;;;;5012425;28;20743;-65
2022/04/24 09:32:48;;;;;;;10.30;7.68;;;15.70;63.50;;;;;;5028616;28;20056;-65
2022/04/24 09:35:28;;;;;;;10.30;7.20;;;15.70;62.80;;;;;;5029928;28;20045;-65
2022/04/24 09:38:14;;;;;;;10.98;7.82;;;15.70;61.30;;;;;;5026474;28;20500;-65
2022/04/24 09:40:44;;;;;;;13.35;7.88;;;15.70;62.60;;;;;;5030560;28;20124;-64
2022/04/24 09:43:12;;;;;;;15.15;8.30;;;15.80;63.40;;;;;;5029360;28;20041;-64
2022/04/24 09:45:40;;;;;;;11.48;8.65;;;15.70;62.20;;;;;;5028042;28;20049;-65
2022/04/24 09:48:16;;;;;;;16.17;7.30;;;15.70;61.30;;;;;;5028938;28;20050;-64
2022/04/24 09:50:42;;;;;;;7.93;6.45;;;15.60;59.60;;;;;;5027360;28;20049;-65
2022/04/24 09:53:14;;;;;;;13.35;7.03;;;15.50;60.30;;;;;;5028170;28;20053;-65
2022/04/24 09:55:44;;;;;;;14.05;8.80;;;15.60;61.40;;;;;;5028625;28;20052;-64
2022/04/24 09:58:11;;;;;;;10.32;8.05;;;15.80;60.80;;;;;;5028720;28;20053;-66
2022/04/24 10:00:37;;;;;;;13.27;8.45;;;16.10;60.60;;;;;;5027471;28;20045;-64
2022/04/24 10:03:03;;;;;;;8.13;7.20;;;16.00;60.50;;;;;;5029411;28;20041;-63
2022/04/24 10:05:32;;;;;;;11.23;7.45;;;16.10;59.50;;;;;;5027689;28;20074;-64
2022/04/24 10:08:01;;;;;;;9.38;5.78;;;16.00;57.80;;;;;;5030143;28;20065;-64
2022/04/24 10:10:27;;;;;;;8.80;6.40;;;15.80;57.20;;;;;;5029227;28;20089;-65
2022/04/24 10:12:54;;;;;;;12.85;7.50;;;15.80;58.60;;;;;;5031011;28;20125;-63
2022/04/24 10:15:23;;;;;;;9.32;5.13;;;15.90;59.10;;;;;;5028821;28;20053;-64
2022/04/24 10:18:18;;;;;;;13.85;6.43;;;15.90;57.00;;;;;;5027945;28;20102;-64
2022/04/24 10:21:15;;;;;;;7.72;5.20;;;16.10;56.80;;;;;;5014254;28;20133;-70
2022/04/24 10:23:42;;;;;;;8.63;6.82;;;16.20;57.20;;;;;;5009076;28;20421;-70
2022/04/24 10:26:21;;;;;;;12.93;6.78;;;16.10;57.40;;;;;;5042416;28;20143;-69
2022/04/24 10:28:47;;;;;;;8.95;6.07;;;16.30;56.80;;;;;;5023628;28;20053;-69
2022/04/24 10:31:14;;;;;;;11.50;7.57;;;16.30;56.20;;;;;;5027785;28;20045;-68
2022/04/24 10:33:52;;;;;;;16.50;7.10;;;16.30;56.30;;;;;;5028446;28;20049;-70
2022/04/24 10:36:18;;;;;;;11.02;6.63;;;16.30;55.60;;;;;;5028356;28;20324;-70
2022/04/24 10:39:00;;;;;;;10.55;6.97;;;16.10;55.10;;;;;;5027013;28;20057;-70
2022/04/24 10:41:30;;;;;;;9.60;6.38;;;16.50;57.20;;;;;;5022218;28;20417;-70
2022/04/24 10:44:12;;;;;;;11.45;7.00;;;16.20;56.30;;;;;;5029662;28;20779;-69
2022/04/24 10:46:40;;;;;;;12.75;7.70;;;16.60;58.00;;;;;;5027846;28;20083;-65
2022/04/24 10:49:12;;;;;;;7.90;6.95;;;16.50;54.80;;;;;;5027667;28;20049;-66
2022/04/24 10:51:42;;;;;;;12.40;7.25;;;16.50;55.60;;;;;;5028410;28;20886;-65
2022/04/24 10:54:16;;;;;;;14.43;6.63;;;16.50;54.80;;;;;;5017905;28;20517;-65
2022/04/24 10:56:49;;;;;;;11.02;7.28;;;16.40;54.00;;;;;;5028278;28;20057;-65
2022/04/24 10:59:18;;;;;;;10.82;6.50;;;16.40;54.00;;;;;;5024614;28;20099;-67
2022/04/24 11:01:55;;;;;;;6.72;5.97;;;16.60;52.80;;;;;;5021036;28;20070;-66
2022/04/24 11:04:23;;;;;;;6.53;5.78;;;16.30;51.50;;;;;;5025451;28;20111;-67
2022/04/24 11:06:55;;;;;;;9.30;6.30;;;16.30;55.00;;;;;;5025286;28;20041;-67
2022/04/24 11:09:22;;;;;;;10.93;7.72;;;16.50;54.50;;;;;;5025796;28;20453;-67
2022/04/24 11:11:49;;;;;;;8.40;6.68;;;16.50;56.50;;;;;;5023890;28;20053;-66
2022/04/24 11:14:25;;;;;;;7.93;5.78;;;16.60;57.40;;;;;;5025278;28;20045;-65
2022/04/24 11:16:59;;;;;;;11.77;5.72;;;15.90;53.10;;;;;;5020766;28;20060;-66
2022/04/24 11:19:28;;;;;;;12.48;7.00;;;15.60;56.00;;;;;;5026361;28;20120;-65
2022/04/24 11:22:02;;;;;;;7.50;6.50;;;16.00;57.50;;;;;;5027960;28;20560;-65
2022/04/24 11:24:32;;;;;;;10.70;6.53;;;16.00;56.50;;;;;;5028108;28;20457;-66
2022/04/24 11:27:05;;;;;;;8.13;5.80;;;15.80;56.60;;;;;;5029431;28;20136;-65
2022/04/24 11:29:33;;;;;;;8.35;5.45;;;16.20;55.70;;;;;;5026906;28;20115;-65
2022/04/24 11:32:00;;;;;;;8.07;5.10;;;16.50;54.20;;;;;;5028492;28;20073;-65
2022/04/24 11:34:26;;;;;;;8.60;6.05;;;16.10;54.20;;;;;;5032335;28;20060;-66
2022/04/24 11:36:57;;;;;;;9.50;6.10;;;15.80;54.60;;;;;;5049336;28;20225;-66
2022/04/24 11:39:25;;;;;;;5.78;4.85;;;15.90;54.20;;;;;;5035574;28;20049;-65
2022/04/24 11:41:52;;;;;;;12.00;6.65;;;16.00;54.50;;;;;;5028493;28;20033;-65
2022/04/24 11:50:13;;;;;;;8.43;5.57;;;16.20;53.40;;;;;;5022649;28;20084;-65
2022/04/24 11:52:41;;;;;;;11.35;6.82;;;16.40;53.30;;;;;;5023791;28;20076;-66
2022/04/24 11:55:23;;;;;;;8.50;6.25;;;16.60;54.20;;;;;;5026692;28;20402;-66
2022/04/24 11:58:01;;;;;;;12.27;6.75;;;16.90;56.10;;;;;;5022539;28;20553;-65
2022/04/24 12:00:34;;;;;;;15.60;6.32;;;16.80;55.20;;;;;;5024354;28;20067;-64
2022/04/24 12:03:01;;;;;;;12.13;7.55;;;16.40;55.60;;;;;;5020396;28;20246;-65
2022/04/24 12:05:29;;;;;;;14.52;7.07;;;16.20;56.80;;;;;;5025627;28;20050;-65
2022/04/24 12:07:58;;;;;;;19.25;6.60;;;16.40;56.50;;;;;;5025920;28;20057;-65
2022/04/24 12:10:25;;;;;;;8.70;6.85;;;16.10;56.60;;;;;;5024839;28;20045;-64
2022/04/24 12:12:52;;;;;;;9.20;6.73;;;15.70;57.10;;;;;;5027611;28;20042;-64
2022/04/24 12:15:23;;;;;;;15.10;7.72;;;15.40;57.80;;;;;;5024397;28;21158;-66
2022/04/24 12:17:54;;;;;;;7.32;6.13;;;15.20;58.20;;;;;;5025089;28;20057;-66
2022/04/24 12:20:21;;;;;;;9.10;6.65;;;15.50;57.50;;;;;;5018628;28;20379;-66
2022/04/24 12:22:47;;;;;;;9.38;6.82;;;15.90;58.60;;;;;;5025693;28;20030;-67
2022/04/24 12:25:17;;;;;;;11.05;7.70;;;16.00;57.80;;;;;;5024701;28;20057;-66
2022/04/24 12:27:53;;;;;;;16.58;8.73;;;16.40;57.30;;;;;;5024092;28;20144;-66
2022/04/24 12:30:19;;;;;;;11.40;6.55;;;16.30;56.50;;;;;;5018183;28;20041;-66
2022/04/24 12:32:45;;;;;;;8.27;5.97;;;16.10;55.00;;;;;;5023141;28;20053;-70
2022/04/24 12:35:31;;;;;;;8.27;5.93;;;16.20;54.70;;;;;;5021376;28;20426;-70
2022/04/24 12:37:57;;;;;;;7.70;5.40;;;16.40;53.40;;;;;;5024137;28;20198;-70
2022/04/24 12:40:23;;;;;;;10.48;6.70;;;16.70;54.00;;;;;;5025992;28;20046;-70
2022/04/24 12:42:55;;;;;;;8.38;6.60;;;16.70;54.00;;;;;;5023721;28;20041;-71
2022/04/24 12:45:24;;;;;;;8.93;7.20;;;16.80;55.20;;;;;;5028145;28;20478;-71
2022/04/24 12:47:50;;;;;;;9.85;6.78;;;16.70;54.30;;;;;;5038354;28;20379;-70